Time;durP1;ratioP1;P1;durP2;ratioP2;P2;SDS_P1;SDS_P2;PMS_P1;PMS_P2;Temp;Humidity;BMP_temperature;BMP_pressure;BME280_temperature;BME280_humidity;BME280_pressure;Samples;Min_cycle;Max_cycle;Signal;HPM_P1;HPM_P2
2022/11/29 00:01:36;;;;;;;24.33;17.90;;;;;;;6.66;100.00;97841.16;4934553;29;20686;-83
2022/11/29 00:04:04;;;;;;;25.00;17.07;;;;;;;6.67;100.00;97840.22;4934000;29;20323;-83
2022/11/29 00:06:32;;;;;;;24.37;17.77;;;;;;;6.66;100.00;97839.34;4934404;29;20213;-83
2022/11/29 00:09:02;;;;;;;24.50;17.17;;;;;;;6.67;100.00;97835.81;4934143;29;20225;-83
2022/11/29 00:14:19;;;;;;;23.60;15.43;;;;;;;6.68;100.00;97842.75;4934287;29;20232;-83
2022/11/29 00:16:51;;;;;;;27.63;17.87;;;;;;;6.66;100.00;97844.59;4933708;29;20218;-83
2022/11/29 00:19:19;;;;;;;25.70;17.27;;;;;;;6.67;100.00;97832.31;4934369;29;20219;-83
2022/11/29 00:21:45;;;;;;;21.73;14.50;;;;;;;6.70;100.00;97840.88;4934144;29;20707;-84
2022/11/29 00:24:12;;;;;;;23.70;16.23;;;;;;;6.71;100.00;97837.31;4933838;29;20709;-84
2022/11/29 00:26:39;;;;;;;25.23;17.70;;;;;;;6.68;100.00;97836.63;4933864;29;20313;-83
2022/11/29 00:29:05;;;;;;;23.07;14.73;;;;;;;6.66;100.00;97835.91;4933892;29;20676;-84
2022/11/29 00:31:33;;;;;;;18.83;12.67;;;;;;;6.68;100.00;97840.13;4934207;29;20240;-84
2022/11/29 00:34:02;;;;;;;29.70;17.77;;;;;;;6.69;100.00;97836.56;4934149;29;20236;-83
2022/11/29 00:36:30;;;;;;;25.80;18.67;;;;;;;6.74;100.00;97842.41;4933969;29;20734;-83
2022/11/29 00:38:57;;;;;;;28.40;18.73;;;;;;;6.75;100.00;97838.81;4934668;29;20218;-83
2022/11/29 00:41:24;;;;;;;30.73;18.30;;;;;;;6.74;100.00;97836.28;4934430;29;20218;-84
2022/11/29 00:43:50;;;;;;;27.73;19.07;;;;;;;6.79;100.00;97842.94;4934495;29;20247;-83
2022/11/29 00:46:17;;;;;;;25.63;17.40;;;;;;;6.81;100.00;97838.47;4934199;29;20251;-83
2022/11/29 00:48:43;;;;;;;25.20;17.73;;;;;;;6.83;100.00;97838.38;4934398;29;20214;-84
2022/11/29 00:51:10;;;;;;;26.57;16.80;;;;;;;6.80;100.00;97836.78;4934185;29;20212;-83
2022/11/29 00:53:38;;;;;;;25.73;15.03;;;;;;;6.79;100.00;97844.75;4934442;29;20236;-83
2022/11/29 00:56:06;;;;;;;25.10;16.57;;;;;;;6.80;100.00;97842.03;4937716;29;20211;-83
2022/11/29 00:58:32;;;;;;;24.00;16.20;;;;;;;6.80;100.00;97841.19;4938096;29;20215;-83
2022/11/29 01:00:59;;;;;;;26.33;17.40;;;;;;;6.77;100.00;97846.63;4938092;29;20216;-84
2022/11/29 01:03:25;;;;;;;20.63;15.47;;;;;;;6.81;100.00;97843.72;4938161;29;20232;-83
2022/11/29 01:05:52;;;;;;;22.67;16.97;;;;;;;6.81;100.00;97848.13;4937803;29;20232;-83
2022/11/29 01:08:19;;;;;;;22.93;16.03;;;;;;;6.76;100.00;97848.41;4938144;29;20212;-84
2022/11/29 01:10:47;;;;;;;25.13;17.97;;;;;;;6.73;100.00;97847.72;4937624;29;20231;-84
2022/11/29 01:13:13;;;;;;;24.80;16.53;;;;;;;6.73;100.00;97845.09;4937962;29;20255;-84
2022/11/29 01:15:41;;;;;;;22.90;15.60;;;;;;;6.72;100.00;97848.66;4937696;29;20214;-84
2022/11/29 01:18:07;;;;;;;24.60;16.60;;;;;;;6.74;100.00;97847.66;4937865;29;20267;-83
2022/11/29 01:20:34;;;;;;;22.13;15.83;;;;;;;6.70;100.00;97847.88;4937808;29;20234;-84
2022/11/29 01:23:00;;;;;;;23.70;15.70;;;;;;;6.68;100.00;97848.00;4937332;29;20246;-84
2022/11/29 01:25:28;;;;;;;22.40;16.60;;;;;;;6.63;100.00;97843.94;4937635;29;20246;-83
2022/11/29 01:27:56;;;;;;;23.27;16.37;;;;;;;6.62;100.00;97850.13;4937817;29;20307;-84
2022/11/29 01:30:22;;;;;;;24.40;17.70;;;;;;;6.66;100.00;97855.09;4937657;29;20226;-83
2022/11/29 01:32:49;;;;;;;24.43;16.70;;;;;;;6.71;100.00;97852.22;4937644;29;20232;-84
2022/11/29 01:35:15;;;;;;;25.27;18.30;;;;;;;6.67;100.00;97848.94;4937298;29;20209;-83
2022/11/29 01:37:42;;;;;;;24.83;16.40;;;;;;;6.69;100.00;97854.94;4937138;29;20212;-83
2022/11/29 01:40:09;;;;;;;25.90;17.17;;;;;;;6.67;100.00;97855.97;4937639;29;20246;-84
2022/11/29 01:42:35;;;;;;;25.23;16.17;;;;;;;6.69;100.00;97854.94;4937235;29;20219;-84
2022/11/29 01:45:07;;;;;;;26.03;18.20;;;;;;;6.77;100.00;97851.88;4937521;29;20604;-83
2022/11/29 01:47:40;;;;;;;29.03;18.17;;;;;;;6.79;100.00;97856.06;4937298;29;20281;-84
2022/11/29 01:50:08;;;;;;;26.77;17.70;;;;;;;6.80;100.00;97846.44;4937327;29;20210;-83
2022/11/29 01:52:35;;;;;;;22.17;16.07;;;;;;;6.81;100.00;97854.22;4937081;29;20216;-83
2022/11/29 01:55:05;;;;;;;27.23;18.53;;;;;;;6.81;100.00;97848.13;4937345;29;20208;-84
2022/11/29 01:57:33;;;;;;;25.90;17.67;;;;;;;6.83;100.00;97847.09;4936885;29;20239;-84
2022/11/29 02:00:06;;;;;;;23.27;16.37;;;;;;;6.85;100.00;97845.22;4937397;29;20292;-83
2022/11/29 02:02:40;;;;;;;23.83;16.50;;;;;;;6.85;100.00;97842.59;4937264;29;20219;-84
2022/11/29 02:05:09;;;;;;;23.87;16.03;;;;;;;6.84;100.00;97838.28;4939975;29;20239;-83
2022/11/29 02:07:37;;;;;;;28.07;19.60;;;;;;;6.82;100.00;97849.81;4945463;29;20212;-84
2022/11/29 02:10:05;;;;;;;27.67;19.13;;;;;;;6.83;100.00;97841.84;4938996;29;20216;-84
2022/11/29 02:12:41;;;;;;;23.43;15.63;;;;;;;6.89;100.00;97844.09;4936327;29;20216;-83
2022/11/29 02:15:22;;;;;;;22.90;15.33;;;;;;;6.88;100.00;97847.66;4936891;29;20208;-83
2022/11/29 02:18:03;;;;;;;21.73;15.53;;;;;;;6.91;100.00;97838.78;4936458;29;20218;-83
2022/11/29 02:20:55;;;;;;;19.60;14.93;;;;;;;6.93;100.00;97850.03;4936680;29;20215;-83
2022/11/29 02:23:55;;;;;;;20.77;14.47;;;;;;;6.95;100.00;97849.00;4936448;29;20755;-84
2022/11/29 02:26:46;;;;;;;20.60;15.43;;;;;;;6.97;100.00;97843.66;4934433;29;20231;-83
2022/11/29 02:29:32;;;;;;;20.57;15.23;;;;;;;6.96;100.00;97850.69;4936545;29;20224;-83
2022/11/29 02:32:36;;;;;;;22.90;16.53;;;;;;;6.97;100.00;97847.13;4936224;29;20223;-83
2022/11/29 02:35:16;;;;;;;19.27;14.17;;;;;;;7.01;100.00;97856.53;4936547;29;20215;-84
2022/11/29 02:38:02;;;;;;;24.00;15.10;;;;;;;7.02;100.00;97852.94;4935822;29;20212;-84
2022/11/29 02:40:50;;;;;;;23.53;16.87;;;;;;;7.03;100.00;97857.25;4936252;29;20222;-84
2022/11/29 02:43:46;;;;;;;22.37;15.77;;;;;;;7.02;100.00;97852.13;4936138;29;20730;-83
2022/11/29 02:46:39;;;;;;;20.50;14.87;;;;;;;7.05;100.00;97852.78;4919095;29;20244;-84
2022/11/29 02:49:19;;;;;;;20.80;14.50;;;;;;;7.03;100.00;97852.00;4935987;29;20661;-86
2022/11/29 02:51:53;;;;;;;23.50;15.37;;;;;;;7.04;100.00;97855.50;4935980;29;20523;-83
2022/11/29 02:54:26;;;;;;;23.57;16.13;;;;;;;7.02;100.00;97852.94;4935700;29;20253;-83
2022/11/29 02:56:57;;;;;;;23.33;16.13;;;;;;;7.04;100.00;97855.50;4935266;29;20212;-84
2022/11/29 02:59:42;;;;;;;21.30;15.27;;;;;;;7.05;100.00;97847.53;4935447;29;20212;-84
2022/11/29 03:02:20;;;;;;;25.70;17.13;;;;;;;7.05;100.00;97855.41;4935481;29;20219;-84
2022/11/29 03:04:54;;;;;;;23.10;15.07;;;;;;;7.06;100.00;97858.88;4935191;29;20212;-84
2022/11/29 03:07:28;;;;;;;25.03;15.90;;;;;;;7.07;100.00;97860.56;4934831;29;20701;-84
2022/11/29 03:10:02;;;;;;;21.47;15.07;;;;;;;7.07;100.00;97858.78;4935592;29;20590;-84
2022/11/29 03:12:37;;;;;;;19.70;14.67;;;;;;;7.10;100.00;97866.50;4935369;29;20231;-84
2022/11/29 03:15:19;;;;;;;21.77;15.10;;;;;;;7.05;100.00;97868.53;4935202;29;20219;-84
2022/11/29 03:18:01;;;;;;;21.27;14.53;;;;;;;7.07;100.00;97866.66;4934824;29;20222;-84
2022/11/29 03:20:38;;;;;;;20.90;15.07;;;;;;;7.07;100.00;97865.81;4935121;29;20212;-84
2022/11/29 03:23:26;;;;;;;20.97;14.83;;;;;;;7.10;100.00;97870.91;4935049;29;20236;-84
2022/11/29 03:25:59;;;;;;;21.60;14.93;;;;;;;7.08;100.00;97878.84;4935028;29;20232;-84
2022/11/29 03:28:33;;;;;;;20.93;14.17;;;;;;;7.05;100.00;97878.19;4934798;29;20212;-84
2022/11/29 03:31:07;;;;;;;22.73;14.83;;;;;;;7.06;100.00;97869.38;4935157;29;20581;-84
2022/11/29 03:33:51;;;;;;;25.20;17.40;;;;;;;7.04;100.00;97872.13;4935034;29;20610;-84
2022/11/29 03:36:42;;;;;;;20.57;14.20;;;;;;;7.08;100.00;97870.97;4934674;29;20345;-84
2022/11/29 03:39:24;;;;;;;21.10;14.93;;;;;;;7.06;100.00;97872.84;4935572;29;20583;-84
2022/11/29 03:42:03;;;;;;;20.30;15.00;;;;;;;7.07;100.00;97873.69;4935236;29;20247;-84
2022/11/29 03:44:41;;;;;;;23.03;16.83;;;;;;;7.05;100.00;97876.44;4961848;23;20652;-78
2022/11/29 03:47:14;;;;;;;19.07;14.67;;;;;;;7.08;100.00;97868.34;4952929;29;20235;-77
2022/11/29 03:49:47;;;;;;;19.80;13.73;;;;;;;7.09;100.00;97880.53;4953989;28;20298;-78
2022/11/29 03:52:21;;;;;;;18.83;13.87;;;;;;;7.09;100.00;97875.28;4953777;28;20229;-77
2022/11/29 03:54:58;;;;;;;23.20;14.77;;;;;;;7.10;100.00;97874.38;4936583;28;20756;-78
2022/11/29 03:57:35;;;;;;;19.47;14.03;;;;;;;7.11;100.00;97880.47;4934159;29;20220;-78
2022/11/29 04:00:07;;;;;;;18.70;13.50;;;;;;;7.13;100.00;97881.22;4934463;29;20212;-78
2022/11/29 04:03:11;;;;;;;20.93;13.37;;;;;;;7.11;100.00;97878.69;4934439;29;20242;-78
2022/11/29 04:06:10;;;;;;;15.70;11.63;;;;;;;7.13;100.00;97878.56;4934070;29;20228;-77
2022/11/29 04:09:08;;;;;;;15.67;11.47;;;;;;;7.14;100.00;97888.19;4934393;29;20218;-77
2022/11/29 04:11:59;;;;;;;15.10;10.53;;;;;;;7.13;100.00;97879.44;4934419;29;20212;-77
2022/11/29 04:14:45;;;;;;;14.50;9.77;;;;;;;7.15;100.00;97887.25;4934578;29;20267;-77
2022/11/29 04:17:40;;;;;;;11.73;8.77;;;;;;;7.14;100.00;97886.38;4934152;29;20212;-77
2022/11/29 04:20:36;;;;;;;10.43;7.67;;;;;;;7.18;100.00;97893.16;4934170;29;20219;-77
2022/11/29 04:23:26;;;;;;;10.17;7.90;;;;;;;7.18;100.00;97887.91;4934243;29;20243;-77
2022/11/29 04:26:19;;;;;;;8.83;6.90;;;;;;;7.17;100.00;97894.09;4933918;29;20232;-78
2022/11/29 04:29:12;;;;;;;9.77;6.63;;;;;;;7.18;100.00;97896.63;4933682;29;20222;-78
2022/11/29 04:32:03;;;;;;;8.97;6.30;;;;;;;7.20;100.00;97896.53;4934228;29;20682;-77
2022/11/29 04:34:52;;;;;;;8.00;6.20;;;;;;;7.20;100.00;97898.31;4934376;29;20703;-77
2022/11/29 04:37:39;;;;;;;8.40;6.07;;;;;;;7.18;100.00;97901.88;4933807;29;20211;-77
2022/11/29 04:40:31;;;;;;;12.57;6.43;;;;;;;7.20;100.00;97904.41;4934275;29;20208;-77
2022/11/29 04:43:30;;;;;;;7.73;5.93;;;;;;;7.22;100.00;97913.06;4933913;29;20212;-78
2022/11/29 04:46:16;;;;;;;9.87;6.73;;;;;;;7.22;100.00;97905.19;4933898;29;20282;-77
2022/11/29 04:49:05;;;;;;;9.77;6.43;;;;;;;7.25;100.00;97912.88;4934242;29;20216;-78
2022/11/29 04:51:53;;;;;;;8.50;5.60;;;;;;;7.24;100.00;97905.94;4925749;29;20210;-77
2022/11/29 04:54:30;;;;;;;8.63;5.97;;;;;;;7.25;100.00;97912.88;4934126;29;20314;-77
2022/11/29 04:57:07;;;;;;;9.13;5.60;;;;;;;7.25;100.00;97923.38;4933815;29;20219;-77
2022/11/29 04:59:44;;;;;;;8.60;6.13;;;;;;;7.27;100.00;97911.00;4933827;29;20216;-77
2022/11/29 05:02:22;;;;;;;8.83;6.60;;;;;;;7.30;100.00;97919.53;4933700;29;20219;-78
2022/11/29 05:04:58;;;;;;;8.60;6.60;;;;;;;7.34;100.00;97917.59;4933810;29;20246;-77
2022/11/29 05:07:31;;;;;;;8.90;6.30;;;;;;;7.30;100.00;97918.72;4933410;29;20668;-77
2022/11/29 05:10:07;;;;;;;10.07;7.27;;;;;;;7.28;100.00;97922.38;4933773;29;20215;-77
2022/11/29 05:12:47;;;;;;;11.60;6.73;;;;;;;7.32;100.00;97924.72;4933611;29;20644;-77
2022/11/29 05:15:56;;;;;;;9.83;6.60;;;;;;;7.33;100.00;97931.66;4933893;29;20682;-77
2022/11/29 05:18:59;;;;;;;8.37;6.03;;;;;;;7.28;100.00;97925.84;4916647;29;20307;-78
2022/11/29 05:21:37;;;;;;;9.90;6.67;;;;;;;7.30;100.00;97924.78;4932539;29;20226;-77
2022/11/29 05:24:19;;;;;;;9.80;6.87;;;;;;;7.26;100.00;97930.34;4933921;29;20235;-77
2022/11/29 05:26:53;;;;;;;10.63;7.27;;;;;;;7.26;100.00;97935.59;4933238;29;20711;-77
2022/11/29 05:29:40;;;;;;;11.37;8.03;;;;;;;7.27;100.00;97933.81;4933448;29;20218;-77
2022/11/29 05:32:27;;;;;;;10.93;7.70;;;;;;;7.30;100.00;97937.13;4933673;29;20224;-77
2022/11/29 05:35:18;;;;;;;9.40;6.70;;;;;;;7.32;100.00;97940.50;4933443;29;20236;-77
2022/11/29 05:37:51;;;;;;;12.87;8.30;;;;;;;7.31;100.00;97936.16;4933407;29;20226;-77
2022/11/29 05:40:39;;;;;;;12.07;8.03;;;;;;;7.27;100.00;97936.44;4933471;29;20212;-77
2022/11/29 05:43:19;;;;;;;12.87;8.67;;;;;;;7.32;100.00;97938.72;4936592;29;20248;-77
2022/11/29 05:45:53;;;;;;;10.83;7.47;;;;;;;7.33;100.00;97942.16;4936448;29;20219;-77
2022/11/29 05:48:29;;;;;;;11.57;8.07;;;;;;;7.32;100.00;97946.59;4936800;29;20292;-77
2022/11/29 05:51:12;;;;;;;12.40;8.83;;;;;;;7.27;100.00;97947.78;4936660;29;20215;-77
2022/11/29 05:53:47;;;;;;;12.97;8.83;;;;;;;7.26;100.00;97946.09;4936624;29;20258;-78
2022/11/29 05:56:29;;;;;;;14.70;8.80;;;;;;;7.29;100.00;97948.56;4936236;29;20212;-77
2022/11/29 05:59:00;;;;;;;12.37;8.13;;;;;;;7.33;100.00;97947.44;4936729;29;20220;-77
2022/11/29 06:01:42;;;;;;;12.80;8.50;;;;;;;7.34;100.00;97951.78;4936572;29;20215;-77
2022/11/29 06:04:17;;;;;;;12.97;8.50;;;;;;;7.30;100.00;97952.88;4936869;29;20235;-77
2022/11/29 06:06:50;;;;;;;12.93;8.20;;;;;;;7.30;100.00;97956.34;4936058;29;20752;-77
2022/11/29 06:09:24;;;;;;;13.63;8.73;;;;;;;7.34;100.00;97957.03;4936742;29;20219;-77
2022/11/29 06:11:56;;;;;;;12.03;8.73;;;;;;;7.33;100.00;97963.19;4936504;29;20215;-77
2022/11/29 06:14:47;;;;;;;13.67;9.30;;;;;;;7.36;100.00;97963.88;4936086;29;20243;-77
2022/11/29 06:17:37;;;;;;;13.80;9.20;;;;;;;7.32;100.00;97961.50;4935842;29;20689;-77
2022/11/29 06:20:33;;;;;;;18.03;9.50;;;;;;;7.33;100.00;97965.84;4936398;29;20221;-77
2022/11/29 06:23:35;;;;;;;15.43;10.47;;;;;;;7.29;100.00;97973.06;4936136;29;20240;-77
2022/11/29 06:26:21;;;;;;;15.90;9.03;;;;;;;7.30;100.00;97972.13;4936034;29;20321;-77
2022/11/29 06:29:01;;;;;;;18.97;10.37;;;;;;;7.31;100.00;97986.13;4936158;29;20208;-77
2022/11/29 06:31:36;;;;;;;20.03;11.83;;;;;;;7.28;100.00;97983.69;4935927;29;20679;-77
2022/11/29 06:34:15;;;;;;;15.93;10.07;;;;;;;7.29;100.00;97986.19;4935800;29;20698;-77
2022/11/29 06:36:48;;;;;;;19.17;11.40;;;;;;;7.30;100.00;97984.44;4935654;29;20709;-77
2022/11/29 06:39:15;;;;;;;17.10;11.10;;;;;;;7.29;100.00;97983.56;4936150;29;20220;-77
2022/11/29 06:41:41;;;;;;;17.50;11.70;;;;;;;7.38;100.00;97992.69;4935742;29;20223;-77
2022/11/29 06:44:10;;;;;;;16.43;11.07;;;;;;;7.34;100.00;97991.22;4935575;29;20630;-77
2022/11/29 06:46:45;;;;;;;19.23;11.27;;;;;;;7.33;100.00;97990.34;4935533;29;20245;-77
2022/11/29 06:49:15;;;;;;;18.23;10.27;;;;;;;7.38;100.00;97986.63;4935877;29;20215;-77
2022/11/29 06:51:51;;;;;;;19.20;12.63;;;;;;;7.36;100.00;97994.59;4935648;29;20220;-77
2022/11/29 06:54:35;;;;;;;25.33;12.80;;;;;;;7.33;100.00;97994.75;4935498;29;20231;-77
2022/11/29 06:57:10;;;;;;;17.53;11.10;;;;;;;7.36;100.00;97995.41;4935501;29;20215;-77
2022/11/29 06:59:50;;;;;;;20.37;11.90;;;;;;;7.43;100.00;98006.44;4935659;29;20226;-77
2022/11/29 07:02:31;;;;;;;17.37;11.77;;;;;;;7.41;100.00;98013.56;4935410;29;20219;-78
2022/11/29 07:05:09;;;;;;;16.17;10.77;;;;;;;7.40;100.00;98006.59;4935228;29;20319;-77
2022/11/29 07:07:38;;;;;;;17.60;11.50;;;;;;;7.38;100.00;98009.34;4934895;29;20236;-77
2022/11/29 07:10:06;;;;;;;16.10;10.37;;;;;;;7.41;100.00;98018.84;4935480;29;20214;-77
2022/11/29 07:12:33;;;;;;;17.37;11.30;;;;;;;7.42;100.00;98020.53;4935226;29;20212;-78
2022/11/29 07:15:00;;;;;;;18.07;11.30;;;;;;;7.42;100.00;98020.53;4935083;29;20232;-77
2022/11/29 07:17:35;;;;;;;15.83;10.47;;;;;;;7.40;100.00;98020.59;4934762;29;20555;-76
2022/11/29 07:20:09;;;;;;;16.03;10.00;;;;;;;7.44;100.00;98021.25;4935108;29;20226;-76
2022/11/29 07:22:50;;;;;;;14.53;8.83;;;;;;;7.44;100.00;98027.38;4934933;29;20673;-76
2022/11/29 07:25:30;;;;;;;16.20;10.17;;;;;;;7.45;100.00;98030.84;4935021;29;20223;-76
2022/11/29 07:28:05;;;;;;;15.60;9.83;;;;;;;7.42;100.00;98037.13;4934624;29;20228;-77
2022/11/29 07:30:40;;;;;;;15.90;9.70;;;;;;;7.40;100.00;98035.50;4934928;29;20215;-77
2022/11/29 07:33:17;;;;;;;14.90;9.73;;;;;;;7.36;100.00;98036.66;4934830;29;20231;-77
2022/11/29 07:35:50;;;;;;;15.17;9.70;;;;;;;7.40;100.00;98039.00;4934625;29;20700;-77
2022/11/29 07:38:27;;;;;;;13.80;9.70;;;;;;;7.42;100.00;98036.28;4934565;29;20223;-77
2022/11/29 07:41:00;;;;;;;12.70;8.67;;;;;;;7.47;100.00;98039.50;4934789;29;20215;-77
2022/11/29 07:43:38;;;;;;;9.93;7.63;;;;;;;7.44;100.00;98029.16;4934591;29;20245;-76
2022/11/29 07:46:05;;;;;;;12.23;8.00;;;;;;;7.45;100.00;98046.63;4934122;29;20266;-77
2022/11/29 07:48:32;;;;;;;9.33;7.07;;;;;;;7.45;100.00;98042.22;4934447;29;20282;-77
2022/11/29 07:50:58;;;;;;;9.50;6.93;;;;;;;7.43;100.00;98048.50;4934838;29;20222;-77
2022/11/29 07:53:26;;;;;;;10.47;7.33;;;;;;;7.36;100.00;98052.41;4934456;29;20246;-77
2022/11/29 07:55:53;;;;;;;8.80;7.27;;;;;;;7.36;100.00;98045.38;4934303;29;20214;-77
2022/11/29 07:58:20;;;;;;;9.30;6.37;;;;;;;7.40;100.00;98051.28;4934156;29;20705;-77
2022/11/29 08:00:47;;;;;;;10.50;7.20;;;;;;;7.42;100.00;98057.31;4934568;29;20222;-77
2022/11/29 08:03:14;;;;;;;8.67;7.03;;;;;;;7.40;100.00;98057.41;4934130;29;20246;-79
2022/11/29 08:05:45;;;;;;;9.57;7.70;;;;;;;7.33;100.00;98057.84;4934099;29;20448;-82
2022/11/29 08:08:11;;;;;;;10.30;8.80;;;;;;;7.39;100.00;98058.34;4933344;29;20460;-80
2022/11/29 08:10:39;;;;;;;8.43;6.60;;;;;;;7.35;100.00;98051.56;4934437;29;20212;-79
2022/11/29 08:13:06;;;;;;;10.60;7.67;;;;;;;7.31;100.00;98051.84;4934066;29;20741;-77
2022/11/29 08:15:32;;;;;;;10.23;7.70;;;;;;;7.33;100.00;98060.47;4934056;29;20219;-76
2022/11/29 08:17:59;;;;;;;10.00;7.47;;;;;;;7.28;100.00;98052.84;4933968;29;20214;-76
2022/11/29 08:20:25;;;;;;;9.20;6.83;;;;;;;7.33;100.00;98065.72;4934292;29;20216;-78
2022/11/29 08:22:56;;;;;;;11.70;7.23;;;;;;;7.37;100.00;98064.63;4934145;29;20212;-76
2022/11/29 08:25:23;;;;;;;9.57;6.77;;;;;;;7.37;100.00;98067.25;4933944;29;20235;-76
2022/11/29 08:27:51;;;;;;;8.80;6.37;;;;;;;7.38;100.00;98068.13;4933669;29;20231;-76
2022/11/29 08:30:21;;;;;;;10.60;7.05;;;;;;;7.38;100.00;98068.94;4933719;29;20449;-80
2022/11/29 08:32:47;;;;;;;9.57;7.03;;;;;;;7.38;100.00;98066.31;4932044;29;20212;-77
2022/11/29 08:35:14;;;;;;;11.20;7.80;;;;;;;7.40;100.00;98067.06;4933303;29;20246;-79
2022/11/29 08:37:41;;;;;;;9.20;7.57;;;;;;;7.41;100.00;98076.66;4932917;29;20701;-79
2022/11/29 08:40:08;;;;;;;7.63;5.80;;;;;;;7.51;100.00;98077.81;4933160;29;20730;-75
2022/11/29 08:42:35;;;;;;;9.13;6.30;;;;;;;7.51;100.00;98077.81;4931112;29;20224;-77
2022/11/29 08:45:05;;;;;;;9.70;6.57;;;;;;;7.51;100.00;98075.19;4932992;29;20247;-79
2022/11/29 08:47:37;;;;;;;7.73;6.30;;;;;;;7.56;100.00;98079.25;4932988;29;20239;-79
2022/11/29 08:50:11;;;;;;;6.87;5.60;;;;;;;7.53;100.00;98076.78;4933466;29;20211;-78
2022/11/29 08:55:26;;;;;;;9.13;5.63;;;;;;;7.59;100.00;98080.88;4933004;29;20597;-79
2022/11/29 08:57:54;;;;;;;9.87;5.47;;;;;;;7.63;100.00;98077.09;4933412;29;20598;-79
2022/11/29 09:00:22;;;;;;;11.33;6.00;;;;;;;7.56;100.00;98078.41;4933020;29;20223;-78
2022/11/29 09:02:49;;;;;;;14.57;8.17;;;;;;;7.55;100.00;98082.84;4932577;29;20544;-77
2022/11/29 09:05:15;;;;;;;11.27;7.73;;;;;;;7.53;100.00;98081.22;4932839;29;20224;-79
2022/11/29 09:07:42;;;;;;;17.80;9.73;;;;;;;7.56;100.00;98091.56;4932338;29;20234;-78
2022/11/29 09:10:11;;;;;;;14.60;8.80;;;;;;;7.60;100.00;98093.06;4932076;29;20678;-82
2022/11/29 09:12:38;;;;;;;16.27;8.60;;;;;;;7.56;100.00;98097.66;4932851;29;20252;-84
2022/11/29 09:15:06;;;;;;;14.17;8.50;;;;;;;7.52;100.00;98096.16;4933284;29;20683;-83
2022/11/29 09:17:34;;;;;;;13.47;8.20;;;;;;;7.54;100.00;98098.69;4936236;29;20667;-82
2022/11/29 09:20:00;;;;;;;14.33;9.50;;;;;;;7.56;100.00;98099.44;4936500;29;20222;-82
2022/11/29 09:22:27;;;;;;;16.70;10.83;;;;;;;7.59;100.00;98102.75;4936036;29;20216;-83
2022/11/29 09:24:53;;;;;;;19.03;11.93;;;;;;;7.62;100.00;98101.72;4936659;29;20231;-82
2022/11/29 09:27:20;;;;;;;16.67;10.97;;;;;;;7.60;100.00;98098.34;4936266;29;20232;-82
2022/11/29 09:29:47;;;;;;;17.23;10.77;;;;;;;7.62;100.00;98112.25;4936486;29;20523;-82
2022/11/29 09:32:13;;;;;;;17.20;10.40;;;;;;;7.68;100.00;98112.75;4936110;29;20211;-82
2022/11/29 09:34:41;;;;;;;19.80;11.27;;;;;;;7.65;100.00;98112.09;4936149;29;20235;-82
2022/11/29 09:37:08;;;;;;;24.63;11.27;;;;;;;7.66;100.00;98113.78;4936466;29;20216;-82
2022/11/29 09:39:34;;;;;;;18.07;10.67;;;;;;;7.68;100.00;98119.78;4936327;29;20239;-82
2022/11/29 09:42:33;;;;;;;20.07;11.87;;;;;;;7.70;100.00;98117.91;4935347;29;20215;-80
2022/11/29 09:45:05;;;;;;;16.60;10.80;;;;;;;7.66;100.00;98124.28;4963156;23;20245;-92
2022/11/29 09:47:51;;;;;;;23.83;13.03;;;;;;;7.57;100.00;98120.41;4955813;29;20321;-93
2022/11/29 09:50:33;;;;;;;28.73;13.57;;;;;;;7.64;100.00;98126.13;4956890;29;20217;-93
2022/11/29 09:56:22;;;;;;;18.53;10.50;;;;;;;7.66;100.00;98129.56;4936157;29;20675;-85
2022/11/29 09:58:54;;;;;;;18.73;10.20;;;;;;;7.55;100.00;98135.44;4937681;29;20475;-93
2022/11/29 10:01:26;;;;;;;18.27;10.67;;;;;;;7.54;100.00;98125.00;4937392;29;20212;-90
2022/11/29 10:03:58;;;;;;;19.60;11.23;;;;;;;7.55;100.00;98131.94;4937427;29;20251;-83
2022/11/29 10:06:47;;;;;;;20.47;11.47;;;;;;;7.59;100.00;98136.09;4938085;29;20271;-94
2022/11/29 10:09:26;;;;;;;17.33;10.53;;;;;;;7.61;100.00;98136.84;4937157;29;20227;-94
2022/11/29 10:12:03;;;;;;;18.27;10.73;;;;;;;7.56;100.00;98144.16;4937118;29;20221;-91
2022/11/29 10:17:31;;;;;;;18.37;10.03;;;;;;;7.68;100.00;98143.44;4940302;29;20216;-85
2022/11/29 10:20:03;;;;;;;16.57;10.90;;;;;;;7.68;100.00;98139.06;4957686;29;20211;-91
2022/11/29 10:22:39;;;;;;;16.63;10.90;;;;;;;7.63;100.00;98142.84;4960002;29;20216;-91
2022/11/29 10:25:28;;;;;;;15.20;10.23;;;;;;;7.56;100.00;98141.53;4960328;29;20243;-93
2022/11/29 10:27:59;;;;;;;16.67;10.13;;;;;;;7.64;100.00;98142.78;4954319;29;20232;-92
2022/11/29 10:44:14;;;;;;;11.60;9.27;;;;;;;7.66;100.00;98140.91;4931840;29;20235;-77
2022/11/29 10:46:41;;;;;;;11.10;8.53;;;;;;;7.63;100.00;98140.22;4936420;29;20223;-93
2022/11/29 10:49:14;;;;;;;10.80;8.60;;;;;;;7.65;100.00;98141.00;4938895;29;20235;-93
2022/11/29 10:51:41;;;;;;;13.90;9.37;;;;;;;7.49;100.00;98137.56;4936168;29;20216;-93
2022/11/29 10:54:22;;;;;;;11.50;9.10;;;;;;;7.42;100.00;98138.84;4936442;29;20262;-93
2022/11/29 10:56:48;;;;;;;12.47;9.40;;;;;;;7.48;100.00;98146.38;4948211;23;20584;-82
2022/11/29 10:59:22;;;;;;;10.70;8.53;;;;;;;7.52;100.00;98137.34;4935844;29;20683;-87
2022/11/29 11:01:49;;;;;;;12.30;9.20;;;;;;;7.53;100.00;98145.16;4935876;29;20215;-83
2022/11/29 11:04:21;;;;;;;11.97;9.53;;;;;;;7.61;100.00;98142.09;4936384;29;20223;-84
2022/11/29 11:06:50;;;;;;;12.10;9.10;;;;;;;7.63;100.00;98140.22;4935404;29;20246;-82
2022/11/29 11:09:22;;;;;;;11.70;9.10;;;;;;;7.62;100.00;98143.81;4935637;29;20239;-84
2022/11/29 11:11:54;;;;;;;10.23;8.17;;;;;;;7.69;100.00;98148.63;4937637;29;20222;-83
2022/11/29 11:14:24;;;;;;;8.93;7.30;;;;;;;7.66;100.00;98146.16;4940405;29;20391;-81
2022/11/29 11:16:51;;;;;;;9.70;8.20;;;;;;;7.68;100.00;98144.31;4938328;29;20741;-82
2022/11/29 11:19:29;;;;;;;9.83;8.20;;;;;;;7.60;100.00;98145.69;4935275;29;20219;-80
2022/11/29 11:21:57;;;;;;;11.70;9.03;;;;;;;7.65;100.00;98138.38;4934824;29;20215;-81
2022/11/29 11:24:26;;;;;;;11.10;9.47;;;;;;;7.60;100.00;98143.88;4935186;29;20219;-82
2022/11/29 11:26:53;;;;;;;11.50;9.67;;;;;;;7.57;100.00;98144.06;4935049;29;20246;-82
2022/11/29 11:29:25;;;;;;;11.93;9.20;;;;;;;7.61;100.00;98140.34;4934944;29;20235;-83
2022/11/29 11:31:55;;;;;;;13.60;10.63;;;;;;;7.59;100.00;98138.72;4935309;29;20212;-81
2022/11/29 11:34:32;;;;;;;12.77;9.80;;;;;;;7.62;100.00;98143.81;4934826;29;20231;-81
2022/11/29 11:37:19;;;;;;;12.70;10.00;;;;;;;7.62;100.00;98143.81;4934434;29;20235;-83
2022/11/29 11:39:48;;;;;;;12.03;9.53;;;;;;;7.57;100.00;98144.06;4933602;29;20215;-80
2022/11/29 11:42:36;;;;;;;11.23;8.97;;;;;;;7.58;100.00;98147.53;4934969;29;20697;-81
2022/11/29 11:45:20;;;;;;;12.07;9.93;;;;;;;7.59;100.00;98146.63;4935128;29;20222;-81
2022/11/29 11:47:50;;;;;;;12.03;9.63;;;;;;;7.64;100.00;98147.19;4934317;29;20662;-80
2022/11/29 11:50:26;;;;;;;11.90;9.33;;;;;;;7.62;100.00;98149.94;4934570;29;20208;-80
2022/11/29 11:52:55;;;;;;;12.33;9.57;;;;;;;7.58;100.00;98150.16;4934655;29;20238;-80
2022/11/29 11:55:30;;;;;;;11.43;10.00;;;;;;;7.58;100.00;98150.16;4934644;29;20208;-81
2022/11/29 11:58:02;;;;;;;12.37;9.67;;;;;;;7.60;100.00;98156.19;4934061;29;20247;-80
2022/11/29 12:00:43;;;;;;;11.87;9.13;;;;;;;7.55;100.00;98160.88;4933120;29;20211;-79
2022/11/29 12:03:25;;;;;;;12.50;9.70;;;;;;;7.65;100.00;98154.16;4933642;29;20247;-80
2022/11/29 12:05:56;;;;;;;10.47;8.77;;;;;;;7.65;100.00;98157.63;4933470;29;20215;-79
2022/11/29 12:08:24;;;;;;;10.67;9.23;;;;;;;7.60;100.00;98156.19;4932419;29;20239;-79
2022/11/29 12:10:53;;;;;;;12.67;9.70;;;;;;;7.58;100.00;98163.31;4932408;29;20211;-79
2022/11/29 12:13:26;;;;;;;12.50;9.50;;;;;;;7.60;100.00;98161.47;4933789;29;20301;-80
2022/11/29 12:15:57;;;;;;;13.50;9.67;;;;;;;7.62;100.00;98162.22;4933485;29;20579;-80
2022/11/29 12:18:30;;;;;;;11.40;9.47;;;;;;;7.59;100.00;98167.66;4933229;29;20204;-80
2022/11/29 12:21:03;;;;;;;10.67;8.77;;;;;;;7.62;100.00;98170.09;4933561;29;20216;-78
2022/11/29 12:23:37;;;;;;;12.23;9.30;;;;;;;7.49;100.00;98174.38;4933148;29;20247;-81